createdAt,value
2023-03-27T00:00:27.366Z,100246.53
2023-03-27T00:02:59.067Z,100284.19
2023-03-27T00:05:31.573Z,100209.59
2023-03-27T00:08:04.355Z,100187.69
2023-03-27T00:10:37.552Z,100202.63
2023-03-27T00:13:10.007Z,100263.06
2023-03-27T00:15:41.729Z,100277.84
2023-03-27T00:18:13.358Z,100267.19
2023-03-27T00:20:44.893Z,100269.69
2023-03-27T00:23:16.396Z,100287.97
2023-03-27T00:25:49.923Z,100173.78
2023-03-27T00:28:21.395Z,100280.63
2023-03-27T00:30:54.835Z,100279.69
2023-03-27T00:33:26.582Z,100256.81
2023-03-27T00:35:58.038Z,100297.06
2023-03-27T00:38:29.732Z,100289.13
2023-03-27T00:41:01.490Z,100303.94
2023-03-27T00:43:35.124Z,100293.19
2023-03-27T00:46:15.416Z,100263.16
2023-03-27T00:48:51.391Z,100320.94
2023-03-27T00:51:24.958Z,100307.78
2023-03-27T00:53:57.127Z,100281.34
2023-03-27T00:56:28.801Z,100196.84
2023-03-27T00:59:05.309Z,100289.78
2023-03-27T01:01:36.914Z,100279.16
2023-03-27T01:04:09.141Z,100271.00
2023-03-27T01:06:42.060Z,100292.09
2023-03-27T01:09:20.235Z,100208.53
2023-03-27T01:12:08.600Z,100316.53
2023-03-27T01:15:03.691Z,100314.53
2023-03-27T01:18:01.150Z,100268.69
2023-03-27T01:21:09.217Z,100307.31
2023-03-27T01:24:19.736Z,100324.91
2023-03-27T01:27:04.209Z,100254.03
2023-03-27T01:29:46.911Z,100276.41
2023-03-27T01:32:56.926Z,100326.72
2023-03-27T01:35:38.161Z,100262.50
2023-03-27T01:38:28.584Z,100330.03
2023-03-27T01:41:18.767Z,100341.13
2023-03-27T01:44:15.583Z,100275.91
2023-03-27T01:46:54.797Z,100234.38
2023-03-27T01:49:45.522Z,100230.69
2023-03-27T01:52:24.611Z,100298.19
2023-03-27T01:55:04.812Z,100351.66
2023-03-27T01:57:50.076Z,100344.38
2023-03-27T02:00:24.233Z,100344.38
2023-03-27T02:03:00.185Z,100331.84
2023-03-27T02:05:36.810Z,100304.34
2023-03-27T02:08:26.270Z,100355.31
2023-03-27T02:10:59.495Z,100306.91
2023-03-27T02:13:44.439Z,100347.19
2023-03-27T02:16:21.745Z,100353.34
2023-03-27T02:18:59.674Z,100257.47
2023-03-27T02:21:33.854Z,100313.50
2023-03-27T02:24:06.080Z,100372.28
2023-03-27T02:26:37.893Z,100288.91
2023-03-27T02:29:27.900Z,100391.78
2023-03-27T02:32:25.161Z,100384.72
2023-03-27T02:34:59.428Z,100389.97
2023-03-27T02:37:42.280Z,100391.63
2023-03-27T02:40:23.728Z,100387.88
2023-03-27T02:43:16.303Z,100364.19
2023-03-27T02:46:01.024Z,100289.34
2023-03-27T02:48:40.724Z,100353.44
2023-03-27T02:51:30.999Z,100360.44
2023-03-27T02:54:06.583Z,100385.84
2023-03-27T02:56:44.722Z,100383.25
2023-03-27T02:59:25.518Z,100277.66
2023-03-27T03:01:57.917Z,100380.53
2023-03-27T03:04:41.532Z,100396.13
2023-03-27T03:07:14.348Z,100290.63
2023-03-27T03:09:45.992Z,100323.94
2023-03-27T03:12:17.419Z,100303.38
2023-03-27T03:14:48.822Z,100393.97
2023-03-27T03:17:20.316Z,100396.50
2023-03-27T03:19:51.660Z,100303.38
2023-03-27T03:22:23.103Z,100426.38
2023-03-27T03:24:54.427Z,100314.56
2023-03-27T03:27:29.067Z,100406.00
2023-03-27T03:30:01.085Z,100358.34
2023-03-27T03:32:33.971Z,100434.81
2023-03-27T03:35:06.464Z,100426.78
2023-03-27T03:37:39.052Z,100446.06
2023-03-27T03:40:12.032Z,100432.78
2023-03-27T03:42:47.989Z,100452.06
2023-03-27T03:45:19.386Z,100418.53
2023-03-27T03:47:50.738Z,100454.56
2023-03-27T03:50:22.134Z,100450.88
2023-03-27T03:52:53.528Z,100462.41
2023-03-27T03:55:25.694Z,100365.41
2023-03-27T03:57:57.007Z,100451.66
2023-03-27T04:00:28.745Z,100481.94
2023-03-27T04:03:00.528Z,100476.09
2023-03-27T04:05:31.929Z,100463.16
2023-03-27T04:08:07.112Z,100483.84
2023-03-27T04:10:39.494Z,100434.19
2023-03-27T04:13:10.824Z,100499.00
2023-03-27T04:15:43.326Z,100510.91
2023-03-27T04:18:15.141Z,100405.09
2023-03-27T04:20:50.534Z,100494.59
2023-03-27T04:23:21.886Z,100480.63
2023-03-27T04:25:53.441Z,100392.63
2023-03-27T04:28:24.833Z,100470.81
2023-03-27T04:30:58.281Z,100402.06
2023-03-27T04:33:30.640Z,100498.53
2023-03-27T04:36:06.483Z,100498.41
2023-03-27T04:38:39.541Z,100486.75
2023-03-27T04:41:11.951Z,100487.47
2023-03-27T04:43:43.333Z,100447.66
2023-03-27T04:46:14.808Z,100513.53
2023-03-27T04:48:46.389Z,100508.88
2023-03-27T04:51:18.044Z,100507.84
2023-03-27T04:53:49.362Z,100511.25
2023-03-27T04:56:22.742Z,100487.44
2023-03-27T04:58:54.080Z,100386.91
2023-03-27T05:09:03.516Z,100517.06
2023-03-27T05:11:34.986Z,100539.16
2023-03-27T05:14:06.990Z,100541.28
2023-03-27T05:16:38.338Z,100544.84
2023-03-27T05:19:10.104Z,100496.81
2023-03-27T05:21:42.064Z,100578.78
2023-03-27T05:24:15.361Z,100552.44
2023-03-27T05:26:58.645Z,100564.03
2023-03-27T05:29:30.395Z,100542.13
2023-03-27T05:32:18.500Z,100551.03
2023-03-27T05:34:54.746Z,100507.13
2023-03-27T05:37:35.516Z,100542.38
2023-03-27T05:40:08.138Z,100508.94
2023-03-27T05:42:45.378Z,100540.56
2023-03-27T05:45:16.996Z,100538.69
2023-03-27T05:51:34.167Z,100524.78
2023-03-27T05:54:05.599Z,100585.38
2023-03-27T05:56:37.324Z,100570.50
2023-03-27T05:59:08.776Z,100585.56
2023-03-27T06:01:40.320Z,100589.38
2023-03-27T06:04:12.344Z,100595.19
2023-03-27T06:06:45.449Z,100585.91
2023-03-27T06:09:17.106Z,100617.06
2023-03-27T06:11:48.499Z,100605.91
2023-03-27T06:14:19.949Z,100555.06
2023-03-27T06:16:51.842Z,100618.50
2023-03-27T06:19:24.472Z,100561.38
2023-03-27T06:21:55.928Z,100613.22
2023-03-27T06:24:27.276Z,100627.44
2023-03-27T06:26:59.034Z,100610.69
2023-03-27T06:29:30.557Z,100603.78
2023-03-27T06:32:02.710Z,100588.16
2023-03-27T06:34:34.113Z,100533.00
2023-03-27T06:37:05.966Z,100621.16
2023-03-27T06:39:37.568Z,100636.16
2023-03-27T06:42:09.109Z,100610.72
2023-03-27T06:44:40.593Z,100625.72
2023-03-27T06:47:12.889Z,100629.31
2023-03-27T06:49:47.705Z,100627.50
2023-03-27T06:52:19.202Z,100537.09
2023-03-27T06:54:51.098Z,100630.41
2023-03-27T06:57:22.829Z,100620.09
2023-03-27T06:59:54.290Z,100582.31
2023-03-27T07:02:25.727Z,100649.34
2023-03-27T07:05:04.169Z,100625.03
2023-03-27T07:07:36.816Z,100638.44
2023-03-27T07:10:10.816Z,100551.59
2023-03-27T07:12:50.366Z,100634.16
2023-03-27T07:15:23.792Z,100605.03
2023-03-27T07:18:01.440Z,100632.13
2023-03-27T07:20:34.069Z,100623.16
2023-03-27T07:23:06.685Z,100625.72
2023-03-27T07:25:38.442Z,100671.34
2023-03-27T07:28:19.333Z,100627.41
2023-03-27T07:30:50.894Z,100662.63
2023-03-27T07:33:22.383Z,100596.78
2023-03-27T07:35:57.227Z,100675.97
2023-03-27T07:38:28.915Z,100683.19
2023-03-27T07:41:06.488Z,100683.38
2023-03-27T07:43:39.166Z,100689.53
2023-03-27T07:46:11.728Z,100654.41
2023-03-27T07:48:44.560Z,100681.63
2023-03-27T07:51:17.637Z,100699.16
2023-03-27T07:53:53.920Z,100709.78
2023-03-27T07:56:26.413Z,100722.13
2023-03-27T07:58:58.289Z,100656.25
2023-03-27T08:01:30.493Z,100648.34
2023-03-27T08:04:02.492Z,100705.41
2023-03-27T08:06:34.561Z,100720.28
2023-03-27T08:09:05.951Z,100723.72
2023-03-27T08:11:41.309Z,100726.28
2023-03-27T08:14:13.100Z,100727.16
2023-03-27T08:16:44.567Z,100755.25
2023-03-27T08:19:16.044Z,100690.09
2023-03-27T08:21:47.367Z,100759.56
2023-03-27T08:24:18.825Z,100702.34
2023-03-27T08:26:51.382Z,100758.56
2023-03-27T08:29:23.005Z,100738.38
2023-03-27T08:31:54.752Z,100727.94
2023-03-27T08:34:28.094Z,100710.38
2023-03-27T08:36:59.599Z,100751.75
2023-03-27T08:39:30.960Z,100654.25
2023-03-27T08:42:08.296Z,100749.16
2023-03-27T08:44:40.703Z,100698.09
2023-03-27T08:47:27.733Z,100769.25
2023-03-27T08:50:05.433Z,100751.69
2023-03-27T08:52:38.341Z,100757.03
2023-03-27T08:55:26.084Z,100769.41
2023-03-27T08:57:59.034Z,100772.16
2023-03-27T09:00:36.797Z,100767.00
2023-03-27T09:03:28.719Z,100736.22
2023-03-27T09:06:12.483Z,100778.41
2023-03-27T09:09:02.889Z,100732.75
2023-03-27T09:12:05.067Z,100783.69
2023-03-27T09:14:41.096Z,100718.66
2023-03-27T09:17:37.720Z,100771.34
2023-03-27T09:20:35.838Z,100763.38
2023-03-27T09:23:43.662Z,100789.53
2023-03-27T09:27:07.275Z,100792.81
2023-03-27T09:29:41.567Z,100730.63
2023-03-27T09:32:16.031Z,100743.13
2023-03-27T09:34:48.064Z,100775.78
2023-03-27T09:37:19.497Z,100706.31
2023-03-27T09:39:52.719Z,100729.16
2023-03-27T09:42:29.281Z,100776.66
2023-03-27T09:45:04.382Z,100785.44
2023-03-27T09:47:59.781Z,100789.81
2023-03-27T09:50:38.817Z,100723.06
2023-03-27T09:53:11.749Z,100813.56
2023-03-27T09:55:52.864Z,100810.94
2023-03-27T09:58:40.848Z,100806.53
2023-03-27T10:01:30.898Z,100790.69
2023-03-27T10:04:17.095Z,100814.41
2023-03-27T10:07:10.156Z,100809.16
2023-03-27T10:09:41.666Z,100788.06
2023-03-27T10:12:20.543Z,100750.28
2023-03-27T10:14:52.906Z,100789.84
2023-03-27T10:17:30.212Z,100808.28
2023-03-27T10:20:24.893Z,100803.00
2023-03-27T10:23:08.896Z,100722.16
2023-03-27T10:25:50.379Z,100718.63
2023-03-27T10:28:27.013Z,100760.72
2023-03-27T10:31:24.498Z,100734.34
2023-03-27T10:33:58.070Z,100777.34
2023-03-27T10:36:40.402Z,100807.22
2023-03-27T10:39:14.528Z,100805.31
2023-03-27T10:41:47.837Z,100828.78
2023-03-27T10:44:21.386Z,100840.19
2023-03-27T10:46:53.545Z,100814.66
2023-03-27T10:49:30.813Z,100833.63
2023-03-27T10:52:18.094Z,100804.13
2023-03-27T10:55:12.499Z,100735.03
2023-03-27T10:57:48.965Z,100823.09
2023-03-27T11:00:48.656Z,100846.13
2023-03-27T11:03:41.154Z,100753.19
2023-03-27T11:06:16.996Z,100835.84
2023-03-27T11:09:06.387Z,100843.75
2023-03-27T11:11:47.847Z,100831.44
2023-03-27T11:14:26.144Z,100812.13
2023-03-27T11:17:04.105Z,100820.00
2023-03-27T11:19:52.851Z,100822.59
2023-03-27T11:22:42.374Z,100748.09
2023-03-27T11:25:38.005Z,100833.31
2023-03-27T11:28:32.010Z,100837.84
2023-03-27T11:31:25.793Z,100851.16
2023-03-27T11:34:29.325Z,100780.88
2023-03-27T11:37:25.880Z,100881.13
2023-03-27T11:40:07.489Z,100843.44
2023-03-27T11:42:42.643Z,100812.56
2023-03-27T11:45:17.409Z,100820.78
2023-03-27T11:48:01.228Z,100901.94
2023-03-27T11:50:48.251Z,100819.28
2023-03-27T11:53:32.588Z,100844.31
2023-03-27T11:56:29.266Z,100939.13
2023-03-27T11:59:20.512Z,100936.19
2023-03-27T12:02:21.314Z,100930.88
2023-03-27T12:05:28.294Z,100925.69
2023-03-27T12:08:09.697Z,100908.22
2023-03-27T12:10:43.641Z,100907.22
2023-03-27T12:14:01.787Z,100888.03
2023-03-27T12:16:55.019Z,100924.47
2023-03-27T12:20:01.059Z,100821.78
2023-03-27T12:22:52.992Z,100923.19
2023-03-27T12:25:41.578Z,100928.47
2023-03-27T12:28:30.671Z,100926.88
2023-03-27T12:31:39.611Z,100913.91
2023-03-27T12:34:50.146Z,100929.91
2023-03-27T12:37:31.244Z,100907.25
2023-03-27T12:40:24.958Z,100904.84
2023-03-27T12:43:19.385Z,100866.47
2023-03-27T12:46:12.217Z,100889.56
2023-03-27T12:48:57.089Z,100901.09
2023-03-27T12:52:04.834Z,100807.00
2023-03-27T12:54:39.014Z,100882.75
2023-03-27T12:57:22.278Z,100883.66
2023-03-27T13:00:10.314Z,100890.69
2023-03-27T13:02:51.294Z,100884.59
2023-03-27T13:05:27.423Z,100879.34
2023-03-27T13:07:59.043Z,100875.72
2023-03-27T13:11:09.184Z,100865.09
2023-03-27T13:14:22.546Z,100881.69
2023-03-27T13:17:26.157Z,100863.25
2023-03-27T13:20:10.221Z,100867.63
2023-03-27T13:23:10.638Z,100869.56
2023-03-27T13:25:51.209Z,100863.59
2023-03-27T13:28:34.608Z,100880.34
2023-03-27T13:31:11.110Z,100781.91
2023-03-27T13:33:45.810Z,100857.50
2023-03-27T13:36:20.846Z,100851.34
2023-03-27T13:38:52.489Z,100861.91
2023-03-27T13:41:48.595Z,100865.41
2023-03-27T13:44:45.275Z,100860.09
2023-03-27T13:47:34.956Z,100862.75
2023-03-27T13:50:14.839Z,100894.44
2023-03-27T13:53:16.500Z,100896.16
2023-03-27T13:56:04.016Z,100820.38
2023-03-27T13:58:50.766Z,100866.88
2023-03-27T14:01:28.227Z,100896.91
2023-03-27T14:04:29.534Z,100902.28
2023-03-27T14:07:43.305Z,100856.59
2023-03-27T14:10:25.950Z,100903.25
2023-03-27T14:13:13.464Z,100907.66
2023-03-27T14:16:01.102Z,100900.59
2023-03-27T14:18:44.817Z,100924.34
2023-03-27T14:21:35.485Z,100864.53
2023-03-27T14:24:24.087Z,100827.63
2023-03-27T14:26:56.373Z,100914.63
2023-03-27T14:29:28.868Z,100889.97
2023-03-27T14:32:05.847Z,100931.25
2023-03-27T14:34:53.378Z,100903.09
2023-03-27T14:37:31.287Z,100926.81
2023-03-27T14:40:22.901Z,100867.06
2023-03-27T14:42:56.041Z,100930.41
2023-03-27T14:45:33.221Z,100870.72
2023-03-27T14:48:22.585Z,100911.13
2023-03-27T14:50:57.914Z,100883.78
2023-03-27T14:53:37.880Z,100924.19
2023-03-27T14:56:22.999Z,100835.22
2023-03-27T14:58:58.714Z,100883.47
2023-03-27T15:01:31.932Z,100969.69
2023-03-27T15:04:07.285Z,100966.97
2023-03-27T15:06:39.433Z,100884.00
2023-03-27T15:09:16.068Z,100896.94
2023-03-27T15:11:53.269Z,101018.25
2023-03-27T15:14:29.449Z,100987.91
2023-03-27T15:17:14.882Z,100987.53
2023-03-27T15:19:53.809Z,100973.38
2023-03-27T15:22:33.945Z,100877.41
2023-03-27T15:25:33.012Z,100982.66
2023-03-27T15:28:10.903Z,100966.97
2023-03-27T15:30:51.645Z,100882.41
2023-03-27T15:33:34.544Z,100877.22
2023-03-27T15:36:26.341Z,100945.16
2023-03-27T15:39:00.552Z,100960.31
2023-03-27T15:41:35.114Z,100978.94
2023-03-27T15:44:12.921Z,100967.41
2023-03-27T15:46:54.251Z,100968.13
2023-03-27T15:49:32.475Z,100998.78
2023-03-27T15:52:32.830Z,100995.22
2023-03-27T15:55:04.544Z,100976.63
2023-03-27T15:57:36.045Z,100970.41
2023-03-27T16:00:14.539Z,100981.09
2023-03-27T16:02:48.014Z,100908.91
2023-03-27T16:05:20.228Z,100980.34
2023-03-27T16:07:52.147Z,100965.50
2023-03-27T16:10:32.564Z,100992.00
2023-03-27T16:13:06.444Z,100966.44
2023-03-27T16:15:45.041Z,100924.09
2023-03-27T16:18:36.821Z,100976.13
2023-03-27T16:21:16.056Z,100977.03
2023-03-27T16:23:47.859Z,100981.53
2023-03-27T16:26:26.505Z,100918.00
2023-03-27T16:29:01.655Z,100955.72
2023-03-27T16:31:33.244Z,100938.06
2023-03-27T16:34:12.038Z,100982.19
2023-03-27T16:36:54.873Z,100990.00
2023-03-27T16:39:26.506Z,100996.94
2023-03-27T16:41:57.860Z,100999.47
2023-03-27T16:44:29.344Z,100980.81
2023-03-27T16:47:00.735Z,100993.13
2023-03-27T16:49:32.095Z,101012.50
2023-03-27T16:52:04.003Z,100916.44
2023-03-27T16:54:35.990Z,101003.75
2023-03-27T16:57:07.902Z,100950.97
2023-03-27T16:59:39.465Z,100996.06
2023-03-27T17:02:12.847Z,101023.47
2023-03-27T17:04:45.463Z,100999.69
2023-03-27T17:07:16.942Z,101009.41
2023-03-27T17:09:48.422Z,100998.97
2023-03-27T17:12:20.182Z,100994.66
2023-03-27T17:14:52.438Z,101012.16
2023-03-27T17:17:24.628Z,101011.06
2023-03-27T17:19:56.731Z,101009.19
2023-03-27T17:22:29.941Z,101023.22
2023-03-27T17:25:03.528Z,101040.72
2023-03-27T17:27:35.348Z,100999.97
2023-03-27T17:30:07.671Z,101019.22
2023-03-27T17:32:39.117Z,101004.94
2023-03-27T17:35:10.517Z,101039.22
2023-03-27T17:37:42.022Z,101031.16
2023-03-27T17:40:14.299Z,101052.97
2023-03-27T17:42:46.035Z,101046.56
2023-03-27T17:45:17.585Z,101049.94
2023-03-27T17:47:48.914Z,101029.59
2023-03-27T17:50:20.592Z,101068.03
2023-03-27T17:52:52.093Z,101037.06
2023-03-27T17:55:23.662Z,101075.78
2023-03-27T17:58:08.399Z,101038.72
2023-03-27T18:00:44.044Z,101057.19
2023-03-27T18:03:16.740Z,101070.28
2023-03-27T18:05:48.401Z,101045.56
2023-03-27T18:08:20.101Z,101079.84
2023-03-27T18:10:51.740Z,101028.47
2023-03-27T18:13:25.281Z,101071.56
2023-03-27T18:15:58.604Z,101029.25
2023-03-27T18:18:30.521Z,101059.31
2023-03-27T18:21:02.411Z,101070.94
2023-03-27T18:23:35.038Z,101071.00
2023-03-27T18:26:07.092Z,101080.84
2023-03-27T18:28:38.590Z,101089.78
2023-03-27T18:31:15.741Z,101035.28
2023-03-27T18:33:47.199Z,101070.69
2023-03-27T18:36:18.660Z,101061.78
2023-03-27T18:38:50.315Z,101068.88
2023-03-27T18:41:21.952Z,101073.28
2023-03-27T18:43:53.321Z,101061.81
2023-03-27T18:46:24.800Z,101097.16
2023-03-27T18:48:56.971Z,101027.38
2023-03-27T18:51:31.489Z,101102.44
2023-03-27T18:54:02.838Z,101083.16
2023-03-27T18:56:35.255Z,101100.00
2023-03-27T18:59:08.928Z,101099.22
2023-03-27T19:01:40.557Z,101079.03
2023-03-27T19:04:13.973Z,101094.09
2023-03-27T19:06:47.754Z,101093.38
2023-03-27T19:09:23.450Z,101070.53
2023-03-27T19:12:02.813Z,101082.88
2023-03-27T19:14:34.428Z,101085.47
2023-03-27T19:17:06.042Z,101056.03
2023-03-27T19:19:37.643Z,101093.75
2023-03-27T19:22:12.799Z,101096.09
2023-03-27T19:24:44.258Z,101104.63
2023-03-27T19:27:23.996Z,101114.03
2023-03-27T19:29:55.793Z,101111.69
2023-03-27T19:32:27.443Z,101035.63
2023-03-27T19:34:58.868Z,101115.72
2023-03-27T19:37:31.247Z,101122.66
2023-03-27T19:40:05.227Z,101053.78
2023-03-27T19:42:36.657Z,101112.63
2023-03-27T19:45:08.890Z,101121.19
2023-03-27T19:47:40.559Z,101112.31
2023-03-27T19:50:14.519Z,101092.81
2023-03-27T19:52:54.484Z,101091.81
2023-03-27T19:55:32.742Z,101129.66
2023-03-27T19:58:04.247Z,101058.78
2023-03-27T20:00:38.386Z,101123.09
2023-03-27T20:03:10.669Z,101097.53
2023-03-27T20:05:48.322Z,101003.69
2023-03-27T20:08:21.465Z,101092.94
2023-03-27T20:10:53.084Z,101125.44
2023-03-27T20:13:24.910Z,101081.47
2023-03-27T20:15:57.960Z,101108.09
2023-03-27T20:18:32.729Z,101117.09
2023-03-27T20:21:05.073Z,101078.44
2023-03-27T20:23:37.654Z,101042.31
2023-03-27T20:26:09.451Z,101097.13
2023-03-27T20:28:40.818Z,101018.72
2023-03-27T20:31:12.166Z,101124.69
2023-03-27T20:33:45.508Z,101114.28
2023-03-27T20:36:19.668Z,101109.94
2023-03-27T20:38:52.640Z,101137.06
2023-03-27T20:41:27.334Z,101120.31
2023-03-27T20:43:58.863Z,101111.25
2023-03-27T20:46:30.537Z,101071.06
2023-03-27T20:49:03.401Z,101125.72
2023-03-27T20:51:34.761Z,101125.44
2023-03-27T20:54:09.834Z,101142.03
2023-03-27T20:56:41.338Z,101118.31
2023-03-27T20:59:13.501Z,101035.22
2023-03-27T21:01:45.117Z,101143.03
2023-03-27T21:04:16.609Z,101137.81
2023-03-27T21:06:48.214Z,101125.44
2023-03-27T21:09:19.567Z,101096.50
2023-03-27T21:11:51.004Z,101059.56
2023-03-27T21:14:23.142Z,101108.31
2023-03-27T21:16:54.526Z,101139.22
2023-03-27T21:19:25.931Z,101124.31
2023-03-27T21:21:57.302Z,101139.97
2023-03-27T21:24:28.633Z,101117.84
2023-03-27T21:27:00.329Z,101121.97
2023-03-27T21:29:31.957Z,101121.72
2023-03-27T21:32:03.448Z,101124.19
2023-03-27T21:34:34.751Z,101148.91
2023-03-27T21:37:06.213Z,101143.66
2023-03-27T21:39:37.653Z,101130.56
2023-03-27T21:42:08.975Z,101135.91
2023-03-27T21:44:40.364Z,101143.09
2023-03-27T21:47:11.992Z,101123.88
2023-03-27T21:49:43.398Z,101159.34
2023-03-27T21:52:14.778Z,101135.66
2023-03-27T21:55:00.106Z,101035.16
2023-03-27T21:57:34.085Z,101109.56
2023-03-27T22:00:06.940Z,101133.22
2023-03-27T22:02:38.388Z,101160.19
2023-03-27T22:05:09.813Z,101161.31
2023-03-27T22:07:41.967Z,101083.47
2023-03-27T22:10:13.426Z,101145.19
2023-03-27T22:12:44.844Z,101151.97
2023-03-27T22:15:16.354Z,101063.44
2023-03-27T22:17:49.116Z,101091.66
2023-03-27T22:20:20.639Z,101164.00
2023-03-27T22:22:52.044Z,101155.09
2023-03-27T22:25:23.408Z,101152.22
2023-03-27T22:27:54.964Z,101156.38
2023-03-27T22:30:27.156Z,101129.41
2023-03-27T22:32:58.511Z,101190.97
2023-03-27T22:35:29.931Z,101202.41
2023-03-27T22:38:01.613Z,101203.09
2023-03-27T22:40:32.965Z,101189.69
2023-03-27T22:43:04.304Z,101184.25
2023-03-27T22:45:36.255Z,101223.13
2023-03-27T22:48:09.239Z,101202.84
2023-03-27T22:50:42.039Z,101212.59
2023-03-27T22:53:13.321Z,101217.25
2023-03-27T22:55:51.162Z,101233.19
2023-03-27T22:58:23.451Z,101245.72
2023-03-27T23:00:55.394Z,101159.00
2023-03-27T23:03:27.909Z,101262.56
2023-03-27T23:05:59.679Z,101250.25
2023-03-27T23:08:31.606Z,101255.50
2023-03-27T23:11:06.166Z,101189.00
2023-03-27T23:13:37.489Z,101258.53
2023-03-27T23:16:09.728Z,101221.44
2023-03-27T23:18:41.252Z,101246.56
2023-03-27T23:21:14.076Z,101218.69
2023-03-27T23:23:46.105Z,101282.06
2023-03-27T23:26:18.340Z,101241.31
2023-03-27T23:28:49.689Z,101224.16
2023-03-27T23:31:21.106Z,101285.88
2023-03-27T23:33:52.569Z,101221.03
2023-03-27T23:36:25.061Z,101268.97
2023-03-27T23:38:56.595Z,101268.59
2023-03-27T23:41:29.379Z,101268.50
2023-03-27T23:44:00.919Z,101278.19
2023-03-27T23:46:32.617Z,101279.81
2023-03-27T23:49:04.046Z,101264.88
2023-03-27T23:51:35.505Z,101290.94
2023-03-27T23:54:06.896Z,101282.13
2023-03-27T23:56:38.507Z,101231.41
2023-03-27T23:59:09.865Z,101296.88
